Time;durP1;ratioP1;P1;durP2;ratioP2;P2;SDS_P1;SDS_P2;PMS_P1;PMS_P2;Temp;Humidity;BMP_temperature;BMP_pressure;BME280_temperature;BME280_humidity;BME280_pressure;Samples;Min_cycle;Max_cycle;Signal;HPM_P1;HPM_P2
2021/04/10 00:01:41;;;;;;;6.10;5.80;;;5.90;99.90;;;;;;5035017;28;20771;-66
2021/04/10 00:04:08;;;;;;;7.37;6.90;;;5.90;99.90;;;;;;5035225;28;20256;-66
2021/04/10 00:06:33;;;;;;;6.30;5.80;;;5.80;99.90;;;;;;5034877;28;20403;-66
2021/04/10 00:08:59;;;;;;;7.77;7.10;;;5.80;99.90;;;;;;5034394;28;20429;-66
2021/04/10 00:11:26;;;;;;;6.70;6.10;;;5.80;99.90;;;;;;5035029;28;20255;-66
2021/04/10 00:13:51;;;;;;;7.27;6.67;;;5.70;99.90;;;;;;5034923;28;20889;-66
2021/04/10 00:16:18;;;;;;;8.20;7.57;;;5.70;99.90;;;;;;5034670;28;20485;-66
2021/04/10 00:18:43;;;;;;;7.80;7.10;;;5.70;99.90;;;;;;5034348;28;20188;-66
2021/04/10 00:21:09;;;;;;;7.70;6.50;;;5.60;99.90;;;;;;5034828;28;20926;-66
2021/04/10 00:23:37;;;;;;;7.47;6.97;;;5.70;99.90;;;;;;5034730;28;20169;-66
2021/04/10 00:26:02;;;;;;;6.47;6.00;;;5.70;99.90;;;;;;5034927;28;20252;-67
2021/04/10 00:28:28;;;;;;;7.67;7.10;;;5.50;99.90;;;;;;5016615;28;20947;-66
2021/04/10 00:31:06;;;;;;;9.47;8.10;;;5.60;99.90;;;;;;5034571;28;20641;-66
2021/04/10 00:33:32;;;;;;;8.93;8.03;;;5.60;99.90;;;;;;5034654;28;20175;-66
2021/04/10 00:35:58;;;;;;;9.20;8.43;;;5.60;99.90;;;;;;5034498;28;20451;-66
2021/04/10 00:38:24;;;;;;;9.77;8.77;;;3.90;99.90;;;;;;5034125;28;20489;-66
2021/04/10 00:40:49;;;;;;;9.13;8.33;;;5.60;99.90;;;;;;5034826;28;20188;-66
2021/04/10 00:43:15;;;;;;;9.03;8.30;;;5.60;99.90;;;;;;5034352;28;20168;-66
2021/04/10 00:45:40;;;;;;;7.40;6.90;;;5.60;99.90;;;;;;5034421;28;20180;-66
2021/04/10 00:48:06;;;;;;;9.43;8.60;;;5.60;99.90;;;;;;5034192;28;20177;-66
2021/04/10 00:50:31;;;;;;;9.13;8.33;;;5.60;99.90;;;;;;5034383;28;20199;-66
2021/04/10 00:52:57;;;;;;;9.67;8.87;;;5.70;99.90;;;;;;5034060;28;20668;-66
2021/04/10 00:55:23;;;;;;;9.23;8.50;;;5.70;99.90;;;;;;5033922;28;20668;-66
2021/04/10 00:57:48;;;;;;;9.70;8.80;;;5.70;99.90;;;;;;5033228;28;20168;-66
2021/04/10 01:00:15;;;;;;;8.27;7.67;;;5.70;99.90;;;;;;5033702;28;20431;-66
2021/04/10 01:02:40;;;;;;;7.77;7.17;;;5.70;99.90;;;;;;5034109;28;20315;-66
2021/04/10 01:05:06;;;;;;;7.70;7.10;;;5.70;99.90;;;;;;5034105;28;20454;-66
2021/04/10 01:07:32;;;;;;;7.00;6.30;;;5.70;99.90;;;;;;5034025;28;20196;-66
2021/04/10 01:09:58;;;;;;;7.97;7.37;;;5.60;99.90;;;;;;5033328;28;20924;-66
2021/04/10 01:12:32;;;;;;;9.53;8.60;;;5.70;99.90;;;;;;5033753;28;20172;-66
2021/04/10 01:15:10;;;;;;;8.37;7.77;;;5.70;99.90;;;;;;5033604;28;20538;-66
2021/04/10 01:17:46;;;;;;;8.93;8.20;;;5.70;99.90;;;;;;5033895;28;20785;-66
2021/04/10 01:20:30;;;;;;;8.53;7.83;;;5.70;99.90;;;;;;5033336;28;20419;-66
2021/04/10 01:23:16;;;;;;;8.13;7.63;;;5.60;99.90;;;;;;5033690;28;20765;-66
2021/04/10 01:26:01;;;;;;;8.17;7.50;;;5.60;99.90;;;;;;5033596;28;20557;-66
2021/04/10 01:28:49;;;;;;;9.07;8.23;;;5.70;99.90;;;;;;5033132;28;20912;-66
2021/04/10 01:31:22;;;;;;;8.40;7.80;;;5.60;99.90;;;;;;5033333;28;20480;-66
2021/04/10 01:33:53;;;;;;;7.80;7.20;;;5.60;99.90;;;;;;5033539;28;20460;-66
2021/04/10 01:36:25;;;;;;;8.87;8.17;;;5.60;99.90;;;;;;5033293;28;20451;-66
2021/04/10 01:38:52;;;;;;;8.40;7.70;;;5.50;99.90;;;;;;5033008;28;20423;-65
2021/04/10 01:41:19;;;;;;;7.10;6.60;;;5.50;99.90;;;;;;5033266;28;20794;-66
2021/04/10 01:43:46;;;;;;;7.00;6.50;;;5.50;99.90;;;;;;5033346;28;21106;-66
2021/04/10 01:46:13;;;;;;;8.03;7.33;;;5.50;99.90;;;;;;5033110;28;20429;-66
2021/04/10 01:48:42;;;;;;;7.20;6.70;;;5.50;99.90;;;;;;5032758;28;20442;-66
2021/04/10 01:51:09;;;;;;;7.97;7.27;;;5.50;99.90;;;;;;5033079;28;20422;-66
2021/04/10 01:53:35;;;;;;;8.37;7.67;;;5.40;99.90;;;;;;5033197;28;20422;-66
2021/04/10 01:56:02;;;;;;;9.77;8.90;;;5.40;99.90;;;;;;5032996;28;20656;-65
2021/04/10 01:58:28;;;;;;;8.57;8.07;;;5.30;99.90;;;;;;5032525;28;20415;-66
2021/04/10 02:00:56;;;;;;;8.67;8.00;;;5.40;99.90;;;;;;5033115;28;20421;-66
2021/04/10 02:03:22;;;;;;;8.60;7.70;;;5.40;99.90;;;;;;5032936;28;20884;-66
2021/04/10 02:05:50;;;;;;;8.03;7.53;;;5.40;99.90;;;;;;5032753;28;20411;-66
2021/04/10 02:08:18;;;;;;;8.27;7.67;;;5.40;99.90;;;;;;5032379;28;20411;-65
2021/04/10 02:10:44;;;;;;;8.80;8.20;;;5.30;99.90;;;;;;5032658;28;20425;-66
2021/04/10 02:13:11;;;;;;;7.63;7.13;;;5.30;99.90;;;;;;5033160;28;20800;-66
2021/04/10 02:15:37;;;;;;;6.90;6.20;;;5.30;99.90;;;;;;5032481;28;20550;-66
2021/04/10 02:18:03;;;;;;;7.50;7.10;;;5.30;99.90;;;;;;5032567;28;20494;-65
2021/04/10 02:20:29;;;;;;;7.43;7.03;;;5.20;99.90;;;;;;5032284;28;20199;-65
2021/04/10 02:22:56;;;;;;;7.73;7.33;;;5.20;99.90;;;;;;5032614;28;20907;-65
2021/04/10 02:25:28;;;;;;;8.13;7.53;;;5.20;99.90;;;;;;5032334;28;20185;-65
2021/04/10 02:27:55;;;;;;;7.77;7.27;;;5.30;99.90;;;;;;5032627;28;20494;-66
2021/04/10 02:30:22;;;;;;;7.00;6.60;;;5.30;99.90;;;;;;5032169;28;20498;-65
2021/04/10 02:33:02;;;;;;;7.73;7.23;;;5.20;99.90;;;;;;5032459;28;20426;-65
2021/04/10 02:35:33;;;;;;;6.80;6.40;;;5.20;99.90;;;;;;5032297;28;20458;-66
2021/04/10 02:38:00;;;;;;;7.30;6.60;;;5.10;99.90;;;;;;5032148;28;20411;-65
2021/04/10 02:40:34;;;;;;;8.40;7.57;;;5.10;99.90;;;;;;5031845;28;20474;-65
2021/04/10 02:43:02;;;;;;;8.30;7.57;;;5.10;99.90;;;;;;5032421;28;20557;-65
2021/04/10 02:45:28;;;;;;;7.30;6.77;;;5.00;99.90;;;;;;5032100;28;20403;-66
2021/04/10 02:47:57;;;;;;;7.60;7.10;;;5.00;99.90;;;;;;5032117;28;20404;-65
2021/04/10 02:50:24;;;;;;;7.77;7.07;;;5.00;99.90;;;;;;5031569;28;20935;-65
2021/04/10 02:52:53;;;;;;;6.63;6.23;;;5.00;99.90;;;;;;5032122;28;20828;-66
2021/04/10 02:55:26;;;;;;;7.43;6.90;;;5.00;99.90;;;;;;5032146;28;20677;-66
2021/04/10 02:57:52;;;;;;;8.20;7.60;;;5.00;99.90;;;;;;5031965;28;20399;-66
2021/04/10 03:00:20;;;;;;;7.60;7.00;;;5.00;99.90;;;;;;5031900;28;20411;-65
2021/04/10 03:02:46;;;;;;;8.70;8.00;;;5.10;99.90;;;;;;5031952;28;20411;-66
2021/04/10 03:05:13;;;;;;;11.07;6.80;;;5.00;99.90;;;;;;5031877;28;20415;-66
2021/04/10 03:07:46;;;;;;;8.23;7.53;;;5.10;99.90;;;;;;5032063;28;20403;-66
2021/04/10 03:10:13;;;;;;;7.13;6.63;;;5.00;99.90;;;;;;5031613;28;20511;-65
2021/04/10 03:12:39;;;;;;;6.87;6.30;;;5.00;99.90;;;;;;5031860;28;20942;-66
2021/04/10 03:15:05;;;;;;;5.93;5.63;;;4.90;99.90;;;;;;5031965;28;20443;-66
2021/04/10 03:17:36;;;;;;;5.80;5.50;;;4.80;99.90;;;;;;5031562;28;20404;-66
2021/04/10 03:20:04;;;;;;;6.53;6.23;;;4.90;99.90;;;;;;5031501;28;20795;-66
2021/04/10 03:22:30;;;;;;;7.67;7.03;;;4.90;99.90;;;;;;5037593;28;20884;-65
2021/04/10 03:24:56;;;;;;;6.60;6.20;;;4.90;99.90;;;;;;5038407;28;20457;-66
2021/04/10 03:27:22;;;;;;;5.70;5.40;;;4.80;99.90;;;;;;5038262;28;20172;-66
2021/04/10 03:29:48;;;;;;;6.13;5.73;;;4.80;99.90;;;;;;5037835;28;20192;-66
2021/04/10 03:32:15;;;;;;;6.47;5.93;;;4.80;99.90;;;;;;5038129;28;20813;-65
2021/04/10 03:34:41;;;;;;;6.93;6.43;;;4.80;99.90;;;;;;5038200;28;20451;-65
2021/04/10 03:37:07;;;;;;;6.60;6.10;;;4.70;99.90;;;;;;5039299;28;20414;-64
2021/04/10 03:39:33;;;;;;;6.23;5.83;;;4.80;99.90;;;;;;5037760;28;20427;-65
2021/04/10 03:41:58;;;;;;;6.87;6.17;;;4.70;99.90;;;;;;5037984;28;20186;-64
2021/04/10 03:44:24;;;;;;;5.83;5.40;;;4.70;99.90;;;;;;5038244;28;20172;-64
2021/04/10 03:46:51;;;;;;;4.90;4.60;;;4.60;99.90;;;;;;5038121;28;20227;-64
2021/04/10 03:49:16;;;;;;;5.17;4.87;;;4.60;99.90;;;;;;5037876;28;20442;-64
2021/04/10 03:51:42;;;;;;;4.57;4.30;;;4.50;99.90;;;;;;5038046;28;20794;-64
2021/04/10 03:54:07;;;;;;;5.97;5.60;;;4.40;99.90;;;;;;5038153;28;20227;-64
2021/04/10 03:56:33;;;;;;;5.67;5.27;;;4.50;99.90;;;;;;5037965;28;20208;-65
2021/04/10 03:58:58;;;;;;;6.30;5.80;;;4.50;99.90;;;;;;5037627;28;20598;-64
2021/04/10 04:01:24;;;;;;;5.00;4.70;;;4.50;99.90;;;;;;5037976;28;20252;-64
2021/04/10 04:03:50;;;;;;;5.83;5.43;;;4.40;99.90;;;;;;5038277;28;20173;-64
2021/04/10 04:06:15;;;;;;;6.17;5.67;;;4.50;99.90;;;;;;5037961;28;20629;-65
2021/04/10 04:08:41;;;;;;;5.60;5.20;;;4.50;99.90;;;;;;5037732;28;20667;-65
2021/04/10 04:11:07;;;;;;;6.10;5.70;;;4.40;99.90;;;;;;5037851;28;20485;-64
2021/04/10 04:13:32;;;;;;;6.07;5.77;;;4.50;99.90;;;;;;5037922;28;20177;-64
2021/04/10 04:15:58;;;;;;;6.70;6.20;;;4.40;99.90;;;;;;5037741;28;20291;-65
2021/04/10 04:18:23;;;;;;;6.03;5.60;;;4.40;99.90;;;;;;5037692;28;20168;-64
2021/04/10 04:20:49;;;;;;;7.27;6.23;;;4.40;99.90;;;;;;5037948;28;20165;-64
2021/04/10 04:23:15;;;;;;;5.40;5.10;;;4.40;99.90;;;;;;5038062;28;20641;-64
2021/04/10 04:25:40;;;;;;;6.00;5.60;;;4.30;99.90;;;;;;5037828;28;20589;-65
2021/04/10 04:28:06;;;;;;;5.13;4.73;;;4.30;99.90;;;;;;5038013;28;20172;-65
2021/04/10 04:30:31;;;;;;;5.27;4.97;;;4.30;99.90;;;;;;5037656;28;20199;-64
2021/04/10 04:32:57;;;;;;;7.07;6.47;;;4.20;99.90;;;;;;5035066;28;20187;-64
2021/04/10 04:35:22;;;;;;;5.80;5.30;;;4.20;99.90;;;;;;5034525;28;20215;-65
2021/04/10 04:37:48;;;;;;;5.70;5.30;;;4.20;99.90;;;;;;5034456;28;20172;-64
2021/04/10 04:40:14;;;;;;;5.70;5.30;;;4.20;99.90;;;;;;5034298;28;20190;-65
2021/04/10 04:42:40;;;;;;;5.57;5.17;;;4.20;99.90;;;;;;5034273;28;20195;-64
2021/04/10 04:45:08;;;;;;;5.00;4.70;;;4.30;99.90;;;;;;5034478;28;20478;-64
2021/04/10 04:47:34;;;;;;;6.27;5.80;;;4.20;99.90;;;;;;5034418;28;20269;-64
2021/04/10 04:50:01;;;;;;;5.60;5.20;;;4.30;99.90;;;;;;5034132;28;20518;-64
2021/04/10 04:52:33;;;;;;;5.67;5.30;;;4.30;99.90;;;;;;5034282;28;20177;-64
2021/04/10 04:54:58;;;;;;;6.10;5.70;;;4.10;99.90;;;;;;5034482;28;20458;-64
2021/04/10 04:57:24;;;;;;;5.83;5.33;;;4.10;99.90;;;;;;5034167;28;20862;-64
2021/04/10 04:59:49;;;;;;;5.60;5.20;;;4.10;99.90;;;;;;5033853;28;20192;-64
2021/04/10 05:02:15;;;;;;;5.30;5.00;;;4.10;99.90;;;;;;5034142;28;20200;-65
2021/04/10 05:04:41;;;;;;;5.30;4.90;;;4.10;99.90;;;;;;5034151;28;20177;-64
2021/04/10 05:07:07;;;;;;;5.30;5.00;;;4.10;99.90;;;;;;5033996;28;20196;-64
2021/04/10 05:09:32;;;;;;;5.30;5.00;;;4.10;99.90;;;;;;5033712;28;20506;-64
2021/04/10 05:11:58;;;;;;;5.17;4.77;;;4.10;99.90;;;;;;5033794;28;20176;-64
2021/04/10 05:14:23;;;;;;;5.00;4.60;;;4.10;99.90;;;;;;5033876;28;20611;-65
2021/04/10 05:16:49;;;;;;;4.97;4.67;;;4.10;99.90;;;;;;5033855;28;20543;-64
2021/04/10 05:19:15;;;;;;;6.10;5.60;;;4.10;99.90;;;;;;5033562;28;20739;-64
2021/04/10 05:21:40;;;;;;;5.60;5.10;;;4.20;99.90;;;;;;5033798;28;20214;-65
2021/04/10 05:24:07;;;;;;;5.67;5.27;;;4.20;99.90;;;;;;5033737;28;20168;-64
2021/04/10 05:26:32;;;;;;;5.27;4.77;;;4.20;99.90;;;;;;5033646;28;20164;-64
2021/04/10 05:28:58;;;;;;;7.00;4.60;;;4.20;99.90;;;;;;5033233;28;20446;-64
2021/04/10 05:31:23;;;;;;;6.13;5.53;;;4.20;99.90;;;;;;5033651;28;20242;-64
2021/04/10 05:33:49;;;;;;;5.03;4.63;;;4.20;99.90;;;;;;5033526;28;20208;-65
2021/04/10 05:36:14;;;;;;;6.07;5.63;;;4.20;99.90;;;;;;5033432;28;20200;-64
2021/04/10 05:38:40;;;;;;;5.10;4.73;;;4.20;99.90;;;;;;5033069;28;20214;-64
2021/04/10 05:41:08;;;;;;;5.40;5.10;;;4.20;99.90;;;;;;5033276;28;20180;-64
2021/04/10 05:43:34;;;;;;;5.27;4.77;;;4.30;99.90;;;;;;5033000;28;20168;-64
2021/04/10 05:46:00;;;;;;;5.13;4.73;;;4.20;99.90;;;;;;5033343;28;20407;-64
2021/04/10 05:48:26;;;;;;;4.70;4.37;;;4.80;99.90;;;;;;5032909;28;20173;-64
2021/04/10 05:50:53;;;;;;;5.10;4.70;;;4.30;99.90;;;;;;5033150;28;20411;-65
2021/04/10 05:53:18;;;;;;;4.67;4.27;;;4.40;99.90;;;;;;5033139;28;20168;-64
2021/04/10 05:55:44;;;;;;;4.37;4.07;;;4.50;99.90;;;;;;5033059;28;20466;-64
2021/04/10 05:58:09;;;;;;;5.73;5.27;;;4.50;99.90;;;;;;5032741;28;20666;-64
2021/04/10 06:00:35;;;;;;;5.47;5.00;;;4.50;99.90;;;;;;5032966;28;20279;-65
2021/04/10 06:03:01;;;;;;;4.60;4.30;;;4.50;99.90;;;;;;5033046;28;20226;-64
2021/04/10 06:05:26;;;;;;;7.03;5.13;;;4.60;99.90;;;;;;5032946;28;20173;-64
2021/04/10 06:07:52;;;;;;;5.27;4.87;;;4.60;99.90;;;;;;5032703;28;20255;-64
2021/04/10 06:10:19;;;;;;;5.03;4.73;;;4.70;99.90;;;;;;5032450;28;20214;-64
2021/04/10 06:12:46;;;;;;;5.60;5.20;;;4.70;99.90;;;;;;5032752;28;20330;-64
2021/04/10 06:15:13;;;;;;;5.80;5.47;;;4.70;99.90;;;;;;5032772;28;20504;-64
2021/04/10 06:17:39;;;;;;;5.30;5.00;;;4.70;99.90;;;;;;5032731;28;20411;-64
2021/04/10 06:20:07;;;;;;;5.80;5.40;;;4.80;99.90;;;;;;5032540;28;20428;-64
2021/04/10 06:22:33;;;;;;;5.73;5.33;;;4.80;99.90;;;;;;5032503;28;20169;-64
2021/04/10 06:24:58;;;;;;;4.40;4.10;;;4.90;99.90;;;;;;5032493;28;20414;-64
2021/04/10 06:27:24;;;;;;;5.17;4.77;;;4.90;99.90;;;;;;5032515;28;20540;-64
2021/04/10 06:29:49;;;;;;;5.80;5.30;;;5.00;99.90;;;;;;5032280;28;20315;-64
2021/04/10 06:32:15;;;;;;;4.77;4.47;;;5.00;99.90;;;;;;5032476;28;20186;-65
2021/04/10 06:34:41;;;;;;;4.73;4.43;;;5.00;99.90;;;;;;5032287;28;20192;-65
2021/04/10 06:37:06;;;;;;;4.60;4.30;;;5.10;99.90;;;;;;5032462;28;20171;-65
2021/04/10 06:39:32;;;;;;;4.70;4.40;;;5.10;99.90;;;;;;5031831;28;20420;-64
2021/04/10 06:41:58;;;;;;;5.23;4.80;;;5.20;99.90;;;;;;5032270;28;20177;-65
2021/04/10 06:44:24;;;;;;;5.93;5.50;;;5.30;99.90;;;;;;5032209;28;20247;-64
2021/04/10 06:46:50;;;;;;;6.40;5.40;;;5.40;99.90;;;;;;5032183;28;20490;-64
2021/04/10 06:49:18;;;;;;;4.90;4.50;;;5.50;99.90;;;;;;5031855;28;20799;-64
2021/04/10 06:51:44;;;;;;;5.43;4.97;;;5.60;99.90;;;;;;5032255;28;20403;-65
2021/04/10 06:54:14;;;;;;;5.60;5.13;;;5.60;99.90;;;;;;5032041;28;20776;-64
2021/04/10 06:56:44;;;;;;;6.13;5.63;;;5.70;99.90;;;;;;5031419;28;20934;-64
2021/04/10 06:59:26;;;;;;;6.00;5.60;;;5.70;99.90;;;;;;5031916;28;20419;-65
2021/04/10 07:01:53;;;;;;;6.10;5.60;;;5.70;99.90;;;;;;5032445;28;20442;-65
2021/04/10 07:04:19;;;;;;;6.07;5.67;;;5.80;99.90;;;;;;5031902;28;20404;-64
2021/04/10 07:06:44;;;;;;;5.27;4.87;;;5.80;99.90;;;;;;5031890;28;20773;-65
2021/04/10 07:09:12;;;;;;;5.20;4.90;;;5.80;99.90;;;;;;5031464;28;20199;-65
2021/04/10 07:11:38;;;;;;;5.67;5.10;;;5.80;99.90;;;;;;5031883;28;20164;-65
2021/04/10 07:14:04;;;;;;;5.27;4.80;;;5.80;99.90;;;;;;5031824;28;20395;-65
2021/04/10 07:16:39;;;;;;;6.47;6.03;;;5.80;99.90;;;;;;5031841;28;20880;-65
2021/04/10 07:19:09;;;;;;;5.23;4.83;;;5.80;99.90;;;;;;5031426;28;20615;-64
2021/04/10 07:21:35;;;;;;;5.23;4.73;;;5.90;99.90;;;;;;5032099;28;20404;-64
2021/04/10 07:24:01;;;;;;;4.80;4.50;;;5.90;99.90;;;;;;5031810;28;20953;-65
2021/04/10 07:26:57;;;;;;;5.50;5.03;;;6.00;99.90;;;;;;5031853;28;20259;-64
2021/04/10 07:29:33;;;;;;;5.80;5.40;;;6.10;99.90;;;;;;5031670;28;20432;-64
2021/04/10 07:31:59;;;;;;;6.37;5.90;;;6.20;99.90;;;;;;5031894;28;20438;-65
2021/04/10 07:34:26;;;;;;;5.70;5.37;;;6.30;99.90;;;;;;5031764;28;20919;-64
2021/04/10 07:37:02;;;;;;;6.00;5.60;;;6.30;99.90;;;;;;5031722;28;20773;-64
2021/04/10 07:39:28;;;;;;;7.37;6.50;;;6.40;99.90;;;;;;5031283;28;20419;-64
2021/04/10 07:42:01;;;;;;;7.20;6.53;;;6.50;99.90;;;;;;5031485;28;20550;-65
2021/04/10 07:44:40;;;;;;;10.70;7.80;;;6.60;99.90;;;;;;5031746;28;20399;-66
2021/04/10 07:47:07;;;;;;;8.13;7.33;;;6.70;99.90;;;;;;5031693;28;20411;-64
2021/04/10 07:49:34;;;;;;;6.23;5.70;;;6.80;99.90;;;;;;5031185;28;20430;-64
2021/04/10 07:52:03;;;;;;;10.70;9.60;;;7.00;99.90;;;;;;5031489;28;20403;-65
2021/04/10 07:54:35;;;;;;;6.80;6.23;;;7.10;99.90;;;;;;5031229;28;20399;-65
2021/04/10 07:57:06;;;;;;;9.83;8.90;;;7.20;99.90;;;;;;5031722;28;20862;-64
2021/04/10 07:59:45;;;;;;;11.33;10.20;;;7.30;99.90;;;;;;5031057;28;20419;-65
2021/04/10 08:02:15;;;;;;;10.50;9.60;;;7.40;99.90;;;;;;5031527;28;20383;-64
2021/04/10 08:04:42;;;;;;;12.60;11.40;;;7.50;99.90;;;;;;5031375;28;20403;-64
2021/04/10 08:07:11;;;;;;;10.57;9.27;;;7.60;99.90;;;;;;5032091;28;20416;-65
2021/04/10 08:09:40;;;;;;;13.67;11.10;;;7.70;99.90;;;;;;5035142;28;21071;-65
2021/04/10 08:12:09;;;;;;;11.50;9.43;;;7.70;99.90;;;;;;5035139;28;21003;-65
2021/04/10 08:14:43;;;;;;;13.43;11.47;;;7.80;99.90;;;;;;5034980;28;20411;-65
2021/04/10 08:17:09;;;;;;;11.43;10.07;;;7.90;99.90;;;;;;5035100;28;20403;-64
2021/04/10 08:19:36;;;;;;;12.10;10.70;;;7.90;99.90;;;;;;5034473;28;20477;-65
2021/04/10 08:22:02;;;;;;;12.87;11.53;;;8.00;99.90;;;;;;5034956;28;20588;-65
2021/04/10 08:24:31;;;;;;;14.93;11.47;;;8.10;99.90;;;;;;5034778;28;20457;-65
2021/04/10 08:27:13;;;;;;;12.53;11.33;;;8.20;99.90;;;;;;5034891;28;20404;-65
2021/04/10 08:29:41;;;;;;;11.63;10.37;;;8.30;99.90;;;;;;5034461;28;20435;-65
2021/04/10 08:32:08;;;;;;;10.70;9.70;;;8.30;99.90;;;;;;5034686;28;20408;-65
2021/04/10 08:34:34;;;;;;;11.03;9.90;;;8.40;99.90;;;;;;5034756;28;20412;-65
2021/04/10 08:37:02;;;;;;;10.63;9.53;;;8.40;99.90;;;;;;5034925;28;20414;-64
2021/04/10 08:39:34;;;;;;;11.37;10.27;;;8.60;99.90;;;;;;5034224;28;20194;-65
2021/04/10 08:42:01;;;;;;;12.00;9.70;;;8.60;99.90;;;;;;5034514;28;20429;-65
2021/04/10 08:44:30;;;;;;;10.83;9.53;;;8.80;99.90;;;;;;5034420;28;20402;-65
2021/04/10 08:46:56;;;;;;;10.70;9.70;;;8.80;99.90;;;;;;5034516;28;20454;-65
2021/04/10 08:49:22;;;;;;;10.70;9.70;;;8.90;99.90;;;;;;5034050;28;20421;-65
2021/04/10 08:51:53;;;;;;;10.63;9.67;;;8.90;99.90;;;;;;5034372;28;20405;-65
2021/04/10 08:54:19;;;;;;;9.03;8.20;;;9.00;99.90;;;;;;5034336;28;20152;-65
2021/04/10 08:56:50;;;;;;;9.90;9.07;;;9.10;99.90;;;;;;5034200;28;20815;-65
2021/04/10 08:59:17;;;;;;;8.80;8.00;;;9.10;99.90;;;;;;5033828;28;20425;-65
2021/04/10 09:01:45;;;;;;;10.30;7.67;;;9.10;99.90;;;;;;5034491;28;20770;-65
2021/04/10 09:04:12;;;;;;;9.73;8.90;;;9.20;99.90;;;;;;5034067;28;20430;-65
2021/04/10 09:06:37;;;;;;;8.93;8.03;;;9.10;99.90;;;;;;5034064;28;20954;-65
2021/04/10 09:09:14;;;;;;;8.40;7.50;;;9.20;99.90;;;;;;5033662;28;20526;-65
2021/04/10 09:11:44;;;;;;;10.20;8.03;;;9.10;99.90;;;;;;5034009;28;20183;-65
2021/04/10 09:14:14;;;;;;;9.33;8.43;;;9.10;99.90;;;;;;5034210;28;20390;-65
2021/04/10 09:16:52;;;;;;;9.93;9.00;;;9.10;99.90;;;;;;5033916;28;20485;-64
2021/04/10 09:19:20;;;;;;;10.50;8.53;;;9.10;99.90;;;;;;5032787;28;20447;-66
2021/04/10 09:21:48;;;;;;;9.20;8.30;;;9.10;99.90;;;;;;5033866;28;20403;-65
2021/04/10 09:24:19;;;;;;;9.60;8.70;;;9.10;99.90;;;;;;5033836;28;20407;-65
2021/04/10 09:27:06;;;;;;;14.43;9.20;;;9.00;99.90;;;;;;5033924;28;20411;-64
2021/04/10 09:29:42;;;;;;;12.07;10.67;;;9.10;99.90;;;;;;5033418;28;20425;-64
2021/04/10 09:32:08;;;;;;;9.47;8.47;;;9.10;99.90;;;;;;5033720;28;20411;-65
2021/04/10 09:34:46;;;;;;;11.57;10.40;;;9.00;99.90;;;;;;5033227;28;20941;-65
2021/04/10 09:37:32;;;;;;;11.80;10.27;;;9.00;99.90;;;;;;5034368;28;20921;-66
2021/04/10 09:40:20;;;;;;;11.50;10.30;;;9.00;99.90;;;;;;5032967;28;20434;-66
2021/04/10 09:42:49;;;;;;;11.87;10.87;;;9.00;99.90;;;;;;5033322;28;20461;-66
2021/04/10 09:45:25;;;;;;;11.53;10.10;;;8.90;99.90;;;;;;5033344;28;20891;-66
2021/04/10 09:48:03;;;;;;;12.90;10.37;;;8.90;99.90;;;;;;5033257;28;20989;-66
2021/04/10 09:50:40;;;;;;;17.37;12.93;;;8.80;99.90;;;;;;5033106;28;20560;-66
2021/04/10 09:53:15;;;;;;;14.47;12.73;;;8.80;99.90;;;;;;5033199;28;20409;-66
2021/04/10 09:56:02;;;;;;;13.70;12.30;;;8.70;99.90;;;;;;5033107;28;20455;-66
2021/04/10 09:58:42;;;;;;;16.57;12.80;;;8.80;99.90;;;;;;5032380;28;20897;-66
2021/04/10 10:01:14;;;;;;;16.63;12.47;;;8.80;99.90;;;;;;5033143;28;20410;-66
2021/04/10 10:03:40;;;;;;;14.00;11.93;;;8.80;99.90;;;;;;5032984;28;20460;-66
2021/04/10 10:06:20;;;;;;;15.57;13.97;;;8.80;99.90;;;;;;5033168;28;20801;-65
2021/04/10 10:08:46;;;;;;;13.37;11.97;;;8.80;99.90;;;;;;5032666;28;20895;-66
2021/04/10 10:11:12;;;;;;;14.03;12.53;;;8.80;99.90;;;;;;5032963;28;20535;-66
2021/04/10 10:13:39;;;;;;;13.90;11.80;;;8.80;99.90;;;;;;5032950;28;20203;-65
2021/04/10 10:16:05;;;;;;;15.57;12.47;;;8.70;99.90;;;;;;5032772;28;20913;-66
2021/04/10 10:18:38;;;;;;;17.90;13.80;;;8.40;99.90;;;;;;5032576;28;20407;-66
2021/04/10 10:21:14;;;;;;;14.27;11.77;;;8.70;99.90;;;;;;5032763;28;20779;-66
2021/04/10 10:23:42;;;;;;;15.83;14.13;;;8.60;99.90;;;;;;5032826;28;20405;-66
2021/04/10 10:26:17;;;;;;;12.80;11.40;;;8.70;99.90;;;;;;5032701;28;20414;-66
2021/04/10 10:29:14;;;;;;;14.27;12.80;;;8.70;99.90;;;;;;5032188;28;20826;-66
2021/04/10 10:31:53;;;;;;;14.70;11.93;;;8.70;99.90;;;;;;5027245;28;20504;-66
2021/04/10 10:34:23;;;;;;;14.30;11.67;;;8.80;99.90;;;;;;5032726;28;20505;-66
2021/04/10 10:36:50;;;;;;;13.80;12.50;;;8.80;99.90;;;;;;5032409;28;20609;-66
2021/04/10 10:39:33;;;;;;;12.50;10.97;;;8.70;99.90;;;;;;5031953;28;20430;-66
2021/04/10 10:42:00;;;;;;;13.00;11.70;;;8.70;99.90;;;;;;5032204;28;20929;-66
2021/04/10 10:44:26;;;;;;;13.03;11.73;;;8.70;99.90;;;;;;5032384;28;20927;-66
2021/04/10 10:47:03;;;;;;;14.20;10.80;;;8.90;99.90;;;;;;5032253;28;20403;-66
2021/04/10 10:49:30;;;;;;;17.63;15.73;;;8.90;99.90;;;;;;5031653;28;20564;-66
2021/04/10 10:51:55;;;;;;;18.67;15.03;;;9.00;99.90;;;;;;5032245;28;20494;-66
2021/04/10 10:54:31;;;;;;;14.33;13.00;;;9.00;99.90;;;;;;5032346;28;20815;-65
2021/04/10 10:56:57;;;;;;;14.63;13.20;;;9.10;99.90;;;;;;5032102;28;20501;-66
2021/04/10 10:59:26;;;;;;;13.27;11.80;;;9.20;99.90;;;;;;5031911;28;20461;-66
2021/04/10 11:01:52;;;;;;;13.43;11.97;;;9.20;99.90;;;;;;5032587;28;20406;-66
2021/04/10 11:04:22;;;;;;;11.40;10.23;;;9.30;99.90;;;;;;5032025;28;20395;-66
2021/04/10 11:06:53;;;;;;;9.97;8.97;;;9.40;99.90;;;;;;5032118;28;20176;-66
2021/04/10 11:09:28;;;;;;;11.17;9.00;;;9.50;99.90;;;;;;5031655;28;20777;-66
2021/04/10 11:11:59;;;;;;;8.13;7.33;;;9.70;99.90;;;;;;5025536;28;20404;-66
2021/04/10 11:14:34;;;;;;;8.53;7.77;;;9.70;99.90;;;;;;5012022;28;20404;-66
2021/04/10 11:17:02;;;;;;;6.37;5.83;;;9.70;99.90;;;;;;5012193;28;20419;-66
2021/04/10 11:19:31;;;;;;;6.90;6.30;;;9.70;99.90;;;;;;5011910;28;20507;-66
2021/04/10 11:22:05;;;;;;;6.77;6.17;;;9.70;99.90;;;;;;5012030;28;20459;-66
2021/04/10 11:24:47;;;;;;;6.37;5.87;;;9.70;99.90;;;;;;5011931;28;20411;-66
2021/04/10 11:27:13;;;;;;;7.43;6.73;;;9.70;99.90;;;;;;5014844;28;20407;-66
2021/04/10 11:29:47;;;;;;;7.13;6.43;;;9.60;99.90;;;;;;5031252;28;20416;-66
2021/04/10 11:32:28;;;;;;;6.70;6.17;;;9.60;99.90;;;;;;5031665;28;20258;-66
2021/04/10 11:34:57;;;;;;;8.50;6.67;;;9.50;99.90;;;;;;5031626;28;20482;-66
2021/04/10 11:37:31;;;;;;;7.20;6.50;;;9.60;99.90;;;;;;5031523;28;20410;-66
2021/04/10 11:40:05;;;;;;;7.80;7.00;;;9.60;99.90;;;;;;5031117;28;20427;-66
2021/04/10 11:42:31;;;;;;;6.60;6.10;;;9.60;99.90;;;;;;5032944;28;20423;-66
2021/04/10 11:45:19;;;;;;;7.03;6.40;;;9.50;99.90;;;;;;5035531;28;20403;-66
2021/04/10 11:47:44;;;;;;;7.17;6.57;;;9.40;99.90;;;;;;5027770;28;20975;-66
2021/04/10 11:50:11;;;;;;;6.17;5.63;;;9.50;99.90;;;;;;5034959;28;20521;-66
2021/04/10 11:52:38;;;;;;;7.80;7.07;;;9.40;99.90;;;;;;5035385;28;20547;-66
2021/04/10 11:55:11;;;;;;;7.10;6.53;;;9.40;99.90;;;;;;5035194;28;20567;-66
2021/04/10 11:57:39;;;;;;;6.87;6.37;;;9.40;99.90;;;;;;5034503;28;20395;-67
2021/04/10 12:00:13;;;;;;;8.10;5.20;;;9.30;99.90;;;;;;5034377;28;20430;-66
2021/04/10 12:02:46;;;;;;;6.00;5.40;;;9.30;99.90;;;;;;5034587;28;20411;-66
2021/04/10 12:05:27;;;;;;;6.33;5.83;;;9.20;99.90;;;;;;5035100;28;20418;-66
2021/04/10 12:08:27;;;;;;;6.03;5.50;;;9.30;99.90;;;;;;5034690;28;20421;-67
2021/04/10 12:10:57;;;;;;;5.70;5.23;;;9.30;99.90;;;;;;5012801;28;20819;-66
2021/04/10 12:13:28;;;;;;;6.50;6.00;;;9.30;99.90;;;;;;5035002;28;20407;-67
2021/04/10 12:15:55;;;;;;;6.30;5.90;;;9.40;99.90;;;;;;5034958;28;20462;-66
2021/04/10 12:18:24;;;;;;;6.33;5.83;;;9.10;99.90;;;;;;5034777;28;20460;-67
2021/04/10 12:20:52;;;;;;;5.60;4.73;;;9.20;99.90;;;;;;5034943;28;20407;-66
2021/04/10 12:23:18;;;;;;;5.97;5.37;;;9.30;99.90;;;;;;5034666;28;20745;-66
2021/04/10 12:25:44;;;;;;;5.43;5.03;;;9.20;99.90;;;;;;5034591;28;20891;-67
2021/04/10 12:28:09;;;;;;;5.07;4.67;;;8.30;99.90;;;;;;5034227;28;20436;-66
2021/04/10 12:30:35;;;;;;;5.13;4.73;;;9.30;99.90;;;;;;5034587;28;20504;-67
2021/04/10 12:33:01;;;;;;;6.20;5.70;;;9.30;99.90;;;;;;5034707;28;20168;-66
2021/04/10 12:35:27;;;;;;;8.63;6.60;;;9.40;99.90;;;;;;5034505;28;20200;-67
2021/04/10 12:37:53;;;;;;;6.07;5.47;;;9.40;99.90;;;;;;5034393;28;20410;-67
2021/04/10 12:40:19;;;;;;;6.40;5.90;;;9.30;99.90;;;;;;5034386;28;20188;-67
2021/04/10 12:42:45;;;;;;;7.63;6.90;;;9.30;99.90;;;;;;5034468;28;20419;-67
2021/04/10 12:45:11;;;;;;;7.27;6.63;;;9.40;99.90;;;;;;5034352;28;20981;-67
2021/04/10 12:47:37;;;;;;;7.17;6.57;;;9.40;99.90;;;;;;5034572;28;20410;-66
2021/04/10 12:50:05;;;;;;;6.70;6.20;;;9.40;99.90;;;;;;5033912;28;20965;-67
2021/04/10 12:52:30;;;;;;;7.23;5.97;;;9.50;99.90;;;;;;5034731;28;20184;-66
2021/04/10 12:54:56;;;;;;;7.83;7.13;;;9.60;99.90;;;;;;5033157;28;20450;-66
2021/04/10 12:57:23;;;;;;;6.10;5.60;;;9.50;99.90;;;;;;5034300;28;20186;-66
2021/04/10 12:59:49;;;;;;;6.30;5.90;;;9.60;99.90;;;;;;5033775;28;20259;-67
2021/04/10 13:02:14;;;;;;;6.27;5.77;;;9.40;99.90;;;;;;5034076;28;20411;-67